sensor_id;sensor_type;location;lat;lon;timestamp;pressure;altitude;pressure_sealevel;temperature;humidity
39177;BME280;24904;52.208;21.192;2022-09-16T00:01:45;99159.52;;;13.25;75.81
39177;BME280;24904;52.208;21.192;2022-09-16T00:06:50;99168.83;;;13.25;75.97
39177;BME280;24904;52.208;21.192;2022-09-16T00:11:55;99175.96;;;13.22;75.87
39177;BME280;24904;52.208;21.192;2022-09-16T00:17:00;99168.14;;;13.13;75.91
39177;BME280;24904;52.208;21.192;2022-09-16T00:22:06;99164.73;;;13.09;76.22
39177;BME280;24904;52.208;21.192;2022-09-16T00:27:11;99167.49;;;13.05;76.19
39177;BME280;24904;52.208;21.192;2022-09-16T00:32:16;99164.83;;;13.04;76.30
39177;BME280;24904;52.208;21.192;2022-09-16T00:37:21;99170.52;;;13.03;76.33
39177;BME280;24904;52.208;21.192;2022-09-16T00:42:26;99166.49;;;13.00;76.43
39177;BME280;24904;52.208;21.192;2022-09-16T00:47:35;99171.77;;;13.04;76.54
39177;BME280;24904;52.208;21.192;2022-09-16T00:52:44;99170.64;;;13.01;76.61
39177;BME280;24904;52.208;21.192;2022-09-16T00:57:49;99168.96;;;12.98;76.54
39177;BME280;24904;52.208;21.192;2022-09-16T01:02:56;99174.59;;;12.96;76.60
39177;BME280;24904;52.208;21.192;2022-09-16T01:08:01;99173.73;;;12.94;76.61
39177;BME280;24904;52.208;21.192;2022-09-16T01:13:09;99168.40;;;12.94;76.86
39177;BME280;24904;52.208;21.192;2022-09-16T01:18:20;99170.07;;;12.89;76.65
39177;BME280;24904;52.208;21.192;2022-09-16T01:29:11;99171.17;;;12.89;77.03
39177;BME280;24904;52.208;21.192;2022-09-16T01:34:29;99174.73;;;12.88;76.95
39177;BME280;24904;52.208;21.192;2022-09-16T01:39:45;99178.23;;;12.90;77.07
39177;BME280;24904;52.208;21.192;2022-09-16T01:44:59;99177.43;;;12.91;77.15
39177;BME280;24904;52.208;21.192;2022-09-16T01:50:14;99175.40;;;12.90;77.02
39177;BME280;24904;52.208;21.192;2022-09-16T01:55:25;99184.66;;;12.83;76.83
39177;BME280;24904;52.208;21.192;2022-09-16T02:00:33;99184.39;;;12.80;76.77
39177;BME280;24904;52.208;21.192;2022-09-16T02:05:43;99183.20;;;12.81;76.87
39177;BME280;24904;52.208;21.192;2022-09-16T02:10:54;99187.54;;;12.85;76.95
39177;BME280;24904;52.208;21.192;2022-09-16T02:16:06;99189.00;;;12.87;76.94
39177;BME280;24904;52.208;21.192;2022-09-16T02:21:16;99190.60;;;12.90;76.80
39177;BME280;24904;52.208;21.192;2022-09-16T02:26:26;99197.58;;;12.91;76.69
39177;BME280;24904;52.208;21.192;2022-09-16T02:31:35;99197.45;;;12.94;76.63
39177;BME280;24904;52.208;21.192;2022-09-16T02:36:44;99194.86;;;12.93;76.41
39177;BME280;24904;52.208;21.192;2022-09-16T02:41:51;99193.32;;;13.01;76.33
39177;BME280;24904;52.208;21.192;2022-09-16T02:47:03;99195.52;;;13.05;76.45
39177;BME280;24904;52.208;21.192;2022-09-16T02:52:21;99194.71;;;13.06;76.31
39177;BME280;24904;52.208;21.192;2022-09-16T02:57:29;99194.98;;;13.04;76.10
39177;BME280;24904;52.208;21.192;2022-09-16T03:02:36;99195.73;;;13.06;76.00
39177;BME280;24904;52.208;21.192;2022-09-16T03:07:43;99194.59;;;13.09;75.86
39177;BME280;24904;52.208;21.192;2022-09-16T03:12:55;99190.85;;;13.12;75.84
39177;BME280;24904;52.208;21.192;2022-09-16T03:18:23;99190.46;;;13.12;75.83
39177;BME280;24904;52.208;21.192;2022-09-16T03:23:42;99189.50;;;13.13;75.98
39177;BME280;24904;52.208;21.192;2022-09-16T03:28:57;99190.35;;;13.13;75.79
39177;BME280;24904;52.208;21.192;2022-09-16T03:34:08;99194.92;;;13.13;75.89
39177;BME280;24904;52.208;21.192;2022-09-16T03:39:18;99196.60;;;13.15;76.03
39177;BME280;24904;52.208;21.192;2022-09-16T03:44:32;99200.79;;;13.15;75.83
39177;BME280;24904;52.208;21.192;2022-09-16T03:49:40;99204.33;;;13.11;75.78
39177;BME280;24904;52.208;21.192;2022-09-16T03:54:46;99212.41;;;13.08;75.70
39177;BME280;24904;52.208;21.192;2022-09-16T03:59:52;99210.45;;;13.02;75.76
39177;BME280;24904;52.208;21.192;2022-09-16T04:04:58;99215.58;;;12.98;75.67
39177;BME280;24904;52.208;21.192;2022-09-16T04:10:06;99221.86;;;12.93;75.75
39177;BME280;24904;52.208;21.192;2022-09-16T04:15:15;99225.05;;;12.87;75.94
39177;BME280;24904;52.208;21.192;2022-09-16T04:20:21;99231.66;;;12.82;75.96
39177;BME280;24904;52.208;21.192;2022-09-16T04:25:28;99226.06;;;12.77;75.96
39177;BME280;24904;52.208;21.192;2022-09-16T04:30:35;99227.28;;;12.75;76.06
39177;BME280;24904;52.208;21.192;2022-09-16T04:35:40;99231.85;;;12.74;76.02
39177;BME280;24904;52.208;21.192;2022-09-16T04:40:46;99229.70;;;12.72;76.06
39177;BME280;24904;52.208;21.192;2022-09-16T04:45:51;99236.34;;;12.70;76.23
39177;BME280;24904;52.208;21.192;2022-09-16T04:51:02;99240.33;;;12.71;76.35
39177;BME280;24904;52.208;21.192;2022-09-16T04:56:11;99241.35;;;12.72;76.31
39177;BME280;24904;52.208;21.192;2022-09-16T05:01:19;99239.66;;;12.73;76.35
39177;BME280;24904;52.208;21.192;2022-09-16T05:06:26;99244.38;;;12.74;76.41
39177;BME280;24904;52.208;21.192;2022-09-16T05:11:33;99248.48;;;12.77;76.52
39177;BME280;24904;52.208;21.192;2022-09-16T05:16:39;99243.13;;;12.78;76.43
39177;BME280;24904;52.208;21.192;2022-09-16T05:21:44;99242.70;;;12.79;76.59
39177;BME280;24904;52.208;21.192;2022-09-16T05:26:49;99246.89;;;12.78;76.47
39177;BME280;24904;52.208;21.192;2022-09-16T05:31:54;99249.34;;;12.77;76.46
39177;BME280;24904;52.208;21.192;2022-09-16T05:37:00;99253.14;;;12.76;76.43
39177;BME280;24904;52.208;21.192;2022-09-16T05:42:06;99253.23;;;12.76;76.24
39177;BME280;24904;52.208;21.192;2022-09-16T05:47:11;99260.17;;;12.81;76.23
39177;BME280;24904;52.208;21.192;2022-09-16T05:52:17;99259.84;;;12.82;76.13
39177;BME280;24904;52.208;21.192;2022-09-16T05:57:22;99256.55;;;12.82;75.89
39177;BME280;24904;52.208;21.192;2022-09-16T06:02:28;99254.93;;;12.78;75.64
39177;BME280;24904;52.208;21.192;2022-09-16T06:07:33;99260.29;;;12.84;75.72
39177;BME280;24904;52.208;21.192;2022-09-16T06:12:38;99251.35;;;12.86;75.51
39177;BME280;24904;52.208;21.192;2022-09-16T06:17:43;99248.25;;;12.92;75.62
39177;BME280;24904;52.208;21.192;2022-09-16T06:22:48;99247.80;;;13.01;75.42
39177;BME280;24904;52.208;21.192;2022-09-16T06:27:53;99251.23;;;13.03;74.97
39177;BME280;24904;52.208;21.192;2022-09-16T06:32:58;99257.31;;;13.05;74.97
39177;BME280;24904;52.208;21.192;2022-09-16T06:38:03;99262.69;;;13.09;74.74
39177;BME280;24904;52.208;21.192;2022-09-16T06:43:08;99256.62;;;13.11;74.46
39177;BME280;24904;52.208;21.192;2022-09-16T06:48:14;99253.45;;;13.06;74.27
39177;BME280;24904;52.208;21.192;2022-09-16T06:53:19;99251.25;;;13.05;74.50
39177;BME280;24904;52.208;21.192;2022-09-16T06:58:26;99254.05;;;13.13;74.70
39177;BME280;24904;52.208;21.192;2022-09-16T07:03:32;99261.20;;;13.19;74.41
39177;BME280;24904;52.208;21.192;2022-09-16T07:08:37;99261.02;;;13.27;74.37
39177;BME280;24904;52.208;21.192;2022-09-16T07:13:43;99260.50;;;13.37;74.13
39177;BME280;24904;52.208;21.192;2022-09-16T07:18:53;99256.77;;;13.52;74.05
39177;BME280;24904;52.208;21.192;2022-09-16T07:24:00;99259.48;;;13.71;73.50
39177;BME280;24904;52.208;21.192;2022-09-16T07:29:06;99258.89;;;13.89;73.11
39177;BME280;24904;52.208;21.192;2022-09-16T07:34:14;99257.39;;;14.08;72.52
39177;BME280;24904;52.208;21.192;2022-09-16T07:39:19;99260.86;;;14.23;71.76
39177;BME280;24904;52.208;21.192;2022-09-16T07:44:26;99271.80;;;14.35;70.86
39177;BME280;24904;52.208;21.192;2022-09-16T07:49:31;99268.73;;;14.38;70.18
39177;BME280;24904;52.208;21.192;2022-09-16T07:54:36;99267.66;;;14.44;69.72
39177;BME280;24904;52.208;21.192;2022-09-16T07:59:41;99265.93;;;14.56;69.23
39177;BME280;24904;52.208;21.192;2022-09-16T08:04:46;99273.27;;;14.69;68.96
39177;BME280;24904;52.208;21.192;2022-09-16T08:09:51;99277.31;;;14.86;68.05
39177;BME280;24904;52.208;21.192;2022-09-16T08:14:56;99280.56;;;15.04;67.76
39177;BME280;24904;52.208;21.192;2022-09-16T08:20:02;99278.54;;;15.16;66.15
39177;BME280;24904;52.208;21.192;2022-09-16T08:25:08;99280.87;;;15.17;65.85
39177;BME280;24904;52.208;21.192;2022-09-16T08:30:14;99275.42;;;15.32;65.31
39177;BME280;24904;52.208;21.192;2022-09-16T08:35:19;99276.10;;;15.46;64.90
39177;BME280;24904;52.208;21.192;2022-09-16T08:40:25;99273.80;;;15.56;64.00
39177;BME280;24904;52.208;21.192;2022-09-16T08:45:35;99271.34;;;15.47;62.87
39177;BME280;24904;52.208;21.192;2022-09-16T08:50:45;99268.77;;;15.40;62.90
39177;BME280;24904;52.208;21.192;2022-09-16T08:55:52;99270.28;;;15.45;62.91
39177;BME280;24904;52.208;21.192;2022-09-16T09:01:01;99275.37;;;15.47;62.38
39177;BME280;24904;52.208;21.192;2022-09-16T09:06:17;99273.77;;;15.45;61.96
39177;BME280;24904;52.208;21.192;2022-09-16T09:11:28;99274.77;;;15.40;61.74
39177;BME280;24904;52.208;21.192;2022-09-16T09:16:44;99270.98;;;15.40;61.50
39177;BME280;24904;52.208;21.192;2022-09-16T09:21:58;99274.77;;;15.55;61.23
39177;BME280;24904;52.208;21.192;2022-09-16T09:27:15;99271.88;;;15.75;60.57
39177;BME280;24904;52.208;21.192;2022-09-16T09:32:27;99272.90;;;16.01;59.77
39177;BME280;24904;52.208;21.192;2022-09-16T09:37:53;99282.09;;;16.14;59.64
39177;BME280;24904;52.208;21.192;2022-09-16T09:43:08;99281.23;;;16.13;59.14
39177;BME280;24904;52.208;21.192;2022-09-16T09:48:20;99273.43;;;16.12;59.00
39177;BME280;24904;52.208;21.192;2022-09-16T09:53:30;99283.13;;;16.16;58.50
39177;BME280;24904;52.208;21.192;2022-09-16T09:58:39;99288.90;;;16.03;58.28
39177;BME280;24904;52.208;21.192;2022-09-16T10:03:48;99281.11;;;15.87;58.36
39177;BME280;24904;52.208;21.192;2022-09-16T10:08:56;99272.48;;;15.98;59.04
39177;BME280;24904;52.208;21.192;2022-09-16T10:14:03;99275.27;;;16.14;59.06
39177;BME280;24904;52.208;21.192;2022-09-16T10:19:21;99276.75;;;16.39;59.02
39177;BME280;24904;52.208;21.192;2022-09-16T10:24:32;99278.17;;;16.63;58.31
39177;BME280;24904;52.208;21.192;2022-09-16T10:29:38;99275.13;;;16.54;57.15
39177;BME280;24904;52.208;21.192;2022-09-16T10:34:44;99278.59;;;16.55;57.91
39177;BME280;24904;52.208;21.192;2022-09-16T10:39:54;99283.52;;;16.64;57.47
39177;BME280;24904;52.208;21.192;2022-09-16T10:45:09;99282.06;;;16.57;57.40
39177;BME280;24904;52.208;21.192;2022-09-16T10:50:20;99285.05;;;16.53;57.52
39177;BME280;24904;52.208;21.192;2022-09-16T10:55:28;99278.38;;;16.67;57.68
39177;BME280;24904;52.208;21.192;2022-09-16T11:00:40;99275.80;;;16.81;57.19
39177;BME280;24904;52.208;21.192;2022-09-16T11:06:02;99270.85;;;16.83;56.27
39177;BME280;24904;52.208;21.192;2022-09-16T11:11:19;99277.44;;;16.72;56.40
39177;BME280;24904;52.208;21.192;2022-09-16T11:22:06;99275.86;;;16.60;56.69
39177;BME280;24904;52.208;21.192;2022-09-16T11:27:23;99268.98;;;16.57;56.02
39177;BME280;24904;52.208;21.192;2022-09-16T11:38:15;99258.90;;;16.51;55.89
39177;BME280;24904;52.208;21.192;2022-09-16T11:49:04;99245.42;;;16.90;55.49
39177;BME280;24904;52.208;21.192;2022-09-16T11:54:22;99238.05;;;17.06;54.91
39177;BME280;24904;52.208;21.192;2022-09-16T11:59:34;99238.55;;;17.27;54.80
39177;BME280;24904;52.208;21.192;2022-09-16T12:04:44;99238.55;;;17.43;53.49
39177;BME280;24904;52.208;21.192;2022-09-16T12:09:53;99250.27;;;17.55;53.24
39177;BME280;24904;52.208;21.192;2022-09-16T12:15:04;99257.89;;;17.36;52.50
39177;BME280;24904;52.208;21.192;2022-09-16T12:20:17;99263.61;;;17.05;52.53
39177;BME280;24904;52.208;21.192;2022-09-16T12:25:27;99264.22;;;16.82;52.78
39177;BME280;24904;52.208;21.192;2022-09-16T12:30:39;99259.30;;;16.59;51.82
39177;BME280;24904;52.208;21.192;2022-09-16T12:35:53;99258.00;;;16.42;52.16
39177;BME280;24904;52.208;21.192;2022-09-16T12:41:11;99249.38;;;16.26;52.40
39177;BME280;24904;52.208;21.192;2022-09-16T12:52:11;99235.83;;;15.99;52.39
39177;BME280;24904;52.208;21.192;2022-09-16T12:57:33;99225.30;;;16.03;52.99
39177;BME280;24904;52.208;21.192;2022-09-16T13:02:46;99227.27;;;16.24;52.89
39177;BME280;24904;52.208;21.192;2022-09-16T13:07:57;99223.52;;;16.36;52.89
39177;BME280;24904;52.208;21.192;2022-09-16T13:13:05;99217.13;;;16.37;52.91
39177;BME280;24904;52.208;21.192;2022-09-16T13:18:23;99218.27;;;16.49;52.96
39177;BME280;24904;52.208;21.192;2022-09-16T13:23:32;99216.85;;;16.64;52.69
39177;BME280;24904;52.208;21.192;2022-09-16T13:28:39;99222.04;;;16.81;51.75
39177;BME280;24904;52.208;21.192;2022-09-16T13:33:47;99214.17;;;16.91;52.01
39177;BME280;24904;52.208;21.192;2022-09-16T13:38:54;99210.03;;;17.01;52.28
39177;BME280;24904;52.208;21.192;2022-09-16T13:44:00;99214.27;;;17.02;52.17
39177;BME280;24904;52.208;21.192;2022-09-16T13:49:21;99217.53;;;16.95;52.73
39177;BME280;24904;52.208;21.192;2022-09-16T13:54:33;99214.29;;;16.82;52.87
39177;BME280;24904;52.208;21.192;2022-09-16T13:59:54;99209.02;;;16.70;52.32
39177;BME280;24904;52.208;21.192;2022-09-16T14:05:28;99215.59;;;16.67;52.05
39177;BME280;24904;52.208;21.192;2022-09-16T14:10:42;99214.11;;;16.60;51.61
39177;BME280;24904;52.208;21.192;2022-09-16T14:15:55;99211.61;;;16.57;51.95
39177;BME280;24904;52.208;21.192;2022-09-16T14:21:04;99206.73;;;16.49;51.99
39177;BME280;24904;52.208;21.192;2022-09-16T14:26:14;99205.54;;;16.44;51.73
39177;BME280;24904;52.208;21.192;2022-09-16T14:31:23;99201.46;;;16.40;51.74
39177;BME280;24904;52.208;21.192;2022-09-16T14:36:33;99200.23;;;16.41;51.52
39177;BME280;24904;52.208;21.192;2022-09-16T14:41:42;99198.31;;;16.42;51.23
39177;BME280;24904;52.208;21.192;2022-09-16T14:46:52;99199.51;;;16.44;50.97
39177;BME280;24904;52.208;21.192;2022-09-16T14:52:01;99197.07;;;16.44;50.59
39177;BME280;24904;52.208;21.192;2022-09-16T14:57:16;99192.28;;;16.42;50.74
39177;BME280;24904;52.208;21.192;2022-09-16T15:02:30;99190.32;;;16.40;50.94
39177;BME280;24904;52.208;21.192;2022-09-16T15:07:40;99187.22;;;16.37;50.91
39177;BME280;24904;52.208;21.192;2022-09-16T15:12:52;99186.75;;;16.34;51.04
39177;BME280;24904;52.208;21.192;2022-09-16T15:18:03;99187.32;;;16.28;50.55
39177;BME280;24904;52.208;21.192;2022-09-16T15:23:22;99195.27;;;16.20;49.78
39177;BME280;24904;52.208;21.192;2022-09-16T15:28:31;99196.69;;;16.10;49.89
39177;BME280;24904;52.208;21.192;2022-09-16T15:33:41;99192.97;;;16.01;50.30
39177;BME280;24904;52.208;21.192;2022-09-16T15:38:57;99189.65;;;15.96;50.62
39177;BME280;24904;52.208;21.192;2022-09-16T15:44:09;99186.11;;;15.96;51.21
39177;BME280;24904;52.208;21.192;2022-09-16T15:49:18;99186.70;;;15.99;51.54
39177;BME280;24904;52.208;21.192;2022-09-16T15:54:23;99181.52;;;16.00;51.93
39177;BME280;24904;52.208;21.192;2022-09-16T15:59:36;99180.05;;;15.97;51.98
39177;BME280;24904;52.208;21.192;2022-09-16T16:04:44;99182.65;;;15.95;52.13
39177;BME280;24904;52.208;21.192;2022-09-16T16:09:51;99179.21;;;15.91;52.63
39177;BME280;24904;52.208;21.192;2022-09-16T16:14:57;99172.20;;;15.85;52.57
39177;BME280;24904;52.208;21.192;2022-09-16T16:20:04;99177.20;;;15.79;52.45
39177;BME280;24904;52.208;21.192;2022-09-16T16:25:11;99186.85;;;15.73;52.65
39177;BME280;24904;52.208;21.192;2022-09-16T16:30:18;99188.22;;;15.66;52.54
39177;BME280;24904;52.208;21.192;2022-09-16T16:35:23;99189.91;;;15.59;51.97
39177;BME280;24904;52.208;21.192;2022-09-16T16:40:29;99192.38;;;15.50;51.95
39177;BME280;24904;52.208;21.192;2022-09-16T16:45:35;99189.17;;;15.43;52.21
39177;BME280;24904;52.208;21.192;2022-09-16T16:50:41;99194.62;;;15.35;52.55
39177;BME280;24904;52.208;21.192;2022-09-16T16:55:48;99202.58;;;15.29;53.09
39177;BME280;24904;52.208;21.192;2022-09-16T17:00:54;99201.77;;;15.21;53.37
39177;BME280;24904;52.208;21.192;2022-09-16T17:06:01;99204.65;;;15.11;53.96
39177;BME280;24904;52.208;21.192;2022-09-16T17:11:09;99206.74;;;15.00;54.14
39177;BME280;24904;52.208;21.192;2022-09-16T17:16:15;99207.87;;;14.93;54.12
39177;BME280;24904;52.208;21.192;2022-09-16T17:21:23;99208.07;;;14.88;54.29
39177;BME280;24904;52.208;21.192;2022-09-16T17:26:30;99216.25;;;14.83;54.46
39177;BME280;24904;52.208;21.192;2022-09-16T17:31:37;99214.35;;;14.70;54.65
39177;BME280;24904;52.208;21.192;2022-09-16T17:36:45;99216.45;;;14.62;55.08
39177;BME280;24904;52.208;21.192;2022-09-16T17:41:51;99215.76;;;14.58;55.44
39177;BME280;24904;52.208;21.192;2022-09-16T17:46:57;99211.80;;;14.55;55.81
39177;BME280;24904;52.208;21.192;2022-09-16T17:52:03;99215.47;;;14.45;56.00
39177;BME280;24904;52.208;21.192;2022-09-16T17:57:09;99211.41;;;14.40;56.43
39177;BME280;24904;52.208;21.192;2022-09-16T18:02:15;99210.08;;;14.32;56.84
39177;BME280;24904;52.208;21.192;2022-09-16T18:07:21;99210.58;;;14.24;57.11
39177;BME280;24904;52.208;21.192;2022-09-16T18:12:27;99205.84;;;14.21;57.22
39177;BME280;24904;52.208;21.192;2022-09-16T18:17:33;99206.14;;;14.18;57.54
39177;BME280;24904;52.208;21.192;2022-09-16T18:22:40;99207.36;;;14.13;57.70
39177;BME280;24904;52.208;21.192;2022-09-16T18:27:46;99210.19;;;14.06;57.97
39177;BME280;24904;52.208;21.192;2022-09-16T18:32:53;99212.78;;;13.99;58.21
39177;BME280;24904;52.208;21.192;2022-09-16T18:37:59;99213.05;;;13.94;58.28
39177;BME280;24904;52.208;21.192;2022-09-16T18:43:05;99210.33;;;13.88;58.66
39177;BME280;24904;52.208;21.192;2022-09-16T18:48:11;99214.45;;;13.79;59.00
39177;BME280;24904;52.208;21.192;2022-09-16T18:53:17;99214.48;;;13.74;59.06
39177;BME280;24904;52.208;21.192;2022-09-16T18:58:24;99212.48;;;13.69;59.23
39177;BME280;24904;52.208;21.192;2022-09-16T19:03:32;99212.45;;;13.66;59.43
39177;BME280;24904;52.208;21.192;2022-09-16T19:08:38;99211.68;;;13.60;59.73
39177;BME280;24904;52.208;21.192;2022-09-16T19:13:46;99214.90;;;13.54;59.94
39177;BME280;24904;52.208;21.192;2022-09-16T19:18:52;99214.56;;;13.46;60.24
39177;BME280;24904;52.208;21.192;2022-09-16T19:24:02;99215.52;;;13.41;60.45
39177;BME280;24904;52.208;21.192;2022-09-16T19:29:11;99221.71;;;13.40;60.39
39177;BME280;24904;52.208;21.192;2022-09-16T19:34:19;99223.86;;;13.33;60.56
39177;BME280;24904;52.208;21.192;2022-09-16T19:39:26;99224.22;;;13.27;60.78
39177;BME280;24904;52.208;21.192;2022-09-16T19:44:33;99223.01;;;13.25;61.00
39177;BME280;24904;52.208;21.192;2022-09-16T19:49:40;99218.31;;;13.22;61.03
39177;BME280;24904;52.208;21.192;2022-09-16T19:54:47;99213.67;;;13.18;61.21
39177;BME280;24904;52.208;21.192;2022-09-16T19:59:55;99213.73;;;13.08;61.44
39177;BME280;24904;52.208;21.192;2022-09-16T20:05:03;99219.38;;;12.97;61.77
39177;BME280;24904;52.208;21.192;2022-09-16T20:10:10;99220.96;;;12.91;62.03
39177;BME280;24904;52.208;21.192;2022-09-16T20:15:18;99223.95;;;12.87;62.13
39177;BME280;24904;52.208;21.192;2022-09-16T20:20:24;99224.70;;;12.85;62.32
39177;BME280;24904;52.208;21.192;2022-09-16T20:25:31;99230.19;;;12.75;62.47
39177;BME280;24904;52.208;21.192;2022-09-16T20:30:39;99232.84;;;12.67;62.59
39177;BME280;24904;52.208;21.192;2022-09-16T20:35:46;99238.67;;;12.61;62.84
39177;BME280;24904;52.208;21.192;2022-09-16T20:40:53;99244.64;;;12.57;63.09
39177;BME280;24904;52.208;21.192;2022-09-16T20:46:04;99250.23;;;12.50;63.42
39177;BME280;24904;52.208;21.192;2022-09-16T20:51:14;99250.58;;;12.44;63.69
39177;BME280;24904;52.208;21.192;2022-09-16T20:56:23;99256.95;;;12.38;63.94
39177;BME280;24904;52.208;21.192;2022-09-16T21:01:31;99262.13;;;12.28;64.07
39177;BME280;24904;52.208;21.192;2022-09-16T21:06:39;99262.02;;;12.26;64.32
39177;BME280;24904;52.208;21.192;2022-09-16T21:11:46;99260.63;;;12.22;64.52
39177;BME280;24904;52.208;21.192;2022-09-16T21:16:56;99257.13;;;12.19;64.75
39177;BME280;24904;52.208;21.192;2022-09-16T21:22:03;99256.30;;;12.17;64.89
39177;BME280;24904;52.208;21.192;2022-09-16T21:27:11;99254.52;;;12.14;64.99
39177;BME280;24904;52.208;21.192;2022-09-16T21:32:19;99249.30;;;12.10;65.11
39177;BME280;24904;52.208;21.192;2022-09-16T21:37:26;99251.55;;;12.00;64.97
39177;BME280;24904;52.208;21.192;2022-09-16T21:42:33;99252.52;;;11.87;65.40
39177;BME280;24904;52.208;21.192;2022-09-16T21:47:40;99256.65;;;11.82;65.76
39177;BME280;24904;52.208;21.192;2022-09-16T21:52:48;99262.50;;;11.78;65.90
39177;BME280;24904;52.208;21.192;2022-09-16T21:57:55;99269.30;;;11.73;65.91
39177;BME280;24904;52.208;21.192;2022-09-16T22:03:04;99266.52;;;11.71;66.11
39177;BME280;24904;52.208;21.192;2022-09-16T22:08:12;99259.38;;;11.68;66.27
39177;BME280;24904;52.208;21.192;2022-09-16T22:13:20;99259.46;;;11.67;66.50
39177;BME280;24904;52.208;21.192;2022-09-16T22:18:32;99260.16;;;11.62;66.63
39177;BME280;24904;52.208;21.192;2022-09-16T22:23:42;99257.52;;;11.59;66.69
39177;BME280;24904;52.208;21.192;2022-09-16T22:28:49;99255.39;;;11.51;66.76
39177;BME280;24904;52.208;21.192;2022-09-16T22:34:00;99254.24;;;11.42;67.11
39177;BME280;24904;52.208;21.192;2022-09-16T22:39:12;99246.90;;;11.31;67.24
39177;BME280;24904;52.208;21.192;2022-09-16T22:44:19;99250.95;;;11.26;67.69
39177;BME280;24904;52.208;21.192;2022-09-16T22:49:27;99251.38;;;11.21;67.56
39177;BME280;24904;52.208;21.192;2022-09-16T22:54:38;99248.44;;;11.17;67.96
39177;BME280;24904;52.208;21.192;2022-09-16T22:59:47;99250.61;;;11.11;68.18
39177;BME280;24904;52.208;21.192;2022-09-16T23:04:55;99247.94;;;11.10;68.21
39177;BME280;24904;52.208;21.192;2022-09-16T23:10:05;99243.84;;;11.06;68.59
39177;BME280;24904;52.208;21.192;2022-09-16T23:15:14;99230.94;;;10.91;68.52
39177;BME280;24904;52.208;21.192;2022-09-16T23:20:23;99237.07;;;10.90;68.68
39177;BME280;24904;52.208;21.192;2022-09-16T23:25:32;99235.80;;;10.82;68.77
39177;BME280;24904;52.208;21.192;2022-09-16T23:30:42;99233.45;;;10.73;68.98
39177;BME280;24904;52.208;21.192;2022-09-16T23:35:52;99219.05;;;10.59;69.03
39177;BME280;24904;52.208;21.192;2022-09-16T23:41:04;99215.58;;;10.49;69.19
39177;BME280;24904;52.208;21.192;2022-09-16T23:46:15;99224.14;;;10.35;69.31
39177;BME280;24904;52.208;21.192;2022-09-16T23:51:27;99226.55;;;10.29;69.67
39177;BME280;24904;52.208;21.192;2022-09-16T23:56:40;99226.09;;;10.24;70.06
